createdAt,value
2023-02-19T00:00:44.943Z,8.81
2023-02-19T00:01:44.807Z,8.76
2023-02-19T00:02:44.786Z,8.76
2023-02-19T00:03:44.364Z,8.69
2023-02-19T00:04:44.364Z,8.7
2023-02-19T00:05:44.215Z,8.76
2023-02-19T00:06:44.521Z,8.7
2023-02-19T00:07:45.169Z,8.7
2023-02-19T00:08:44.497Z,8.7
2023-02-19T00:09:44.495Z,8.63
2023-02-19T00:10:44.564Z,8.63
2023-02-19T00:11:44.080Z,8.66
2023-02-19T00:12:44.870Z,8.69
2023-02-19T00:13:44.586Z,8.63
2023-02-19T00:14:44.303Z,8.66
2023-02-19T00:15:44.753Z,8.7
2023-02-19T00:16:45.047Z,8.63
2023-02-19T00:17:44.941Z,8.66
2023-02-19T00:18:44.414Z,8.63
2023-02-19T00:19:44.960Z,8.64
2023-02-19T00:20:44.398Z,8.64
2023-02-19T00:21:44.616Z,8.63
2023-02-19T00:22:44.110Z,8.67
2023-02-19T00:23:44.439Z,8.69
2023-02-19T00:24:44.682Z,8.67
2023-02-19T00:25:44.629Z,8.7
2023-02-19T00:26:44.219Z,8.69
2023-02-19T00:27:44.639Z,8.69
2023-02-19T00:28:44.690Z,8.69
2023-02-19T00:29:44.658Z,8.64
2023-02-19T00:30:44.818Z,8.73
2023-02-19T00:31:45.779Z,8.66
2023-02-19T00:32:44.740Z,8.67
2023-02-19T00:33:44.697Z,8.69
2023-02-19T00:34:45.142Z,8.7
2023-02-19T00:35:44.812Z,8.69
2023-02-19T00:36:45.060Z,8.66
2023-02-19T00:37:44.488Z,8.71
2023-02-19T00:38:44.837Z,8.7
2023-02-19T00:39:45.310Z,8.73
2023-02-19T00:40:46.302Z,8.67
2023-02-19T00:41:44.911Z,8.71
2023-02-19T00:42:44.985Z,8.69
2023-02-19T00:43:44.607Z,8.66
2023-02-19T00:44:44.539Z,8.66
2023-02-19T00:45:45.014Z,8.67
2023-02-19T00:46:44.997Z,8.58
2023-02-19T00:47:44.779Z,8.66
2023-02-19T00:48:45.919Z,8.63
2023-02-19T00:49:44.614Z,8.66
2023-02-19T00:50:45.169Z,8.52
2023-02-19T00:51:45.031Z,8.69
2023-02-19T00:52:44.901Z,8.53
2023-02-19T00:53:45.135Z,8.55
2023-02-19T00:54:44.655Z,8.56
2023-02-19T00:55:44.866Z,8.52
2023-02-19T00:56:44.926Z,8.52
2023-02-19T00:57:44.920Z,8.53
2023-02-19T00:58:45.268Z,8.38
2023-02-19T00:59:44.815Z,8.52
2023-02-19T01:00:44.993Z,8.46
2023-02-19T01:01:45.945Z,8.45
2023-02-19T01:02:44.943Z,8.46
2023-02-19T01:03:45.570Z,8.38
2023-02-19T01:04:45.992Z,8.45
2023-02-19T01:05:45.685Z,8.37
2023-02-19T01:06:45.275Z,8.31
2023-02-19T01:07:44.976Z,8.36
2023-02-19T01:08:45.014Z,8.33
2023-02-19T01:09:45.107Z,8.36
2023-02-19T01:10:44.760Z,8.37
2023-02-19T01:11:44.999Z,8.33
2023-02-19T01:12:45.488Z,8.34
2023-02-19T01:13:45.097Z,8.34
2023-02-19T01:14:45.330Z,8.33
2023-02-19T01:15:45.766Z,8.31
2023-02-19T01:16:44.794Z,8.41
2023-02-19T01:17:45.845Z,8.31
2023-02-19T01:18:45.764Z,8.37
2023-02-19T01:19:45.089Z,8.31
2023-02-19T01:20:45.493Z,8.33
2023-02-19T01:21:45.077Z,8.33
2023-02-19T01:22:46.068Z,8.38
2023-02-19T01:23:45.106Z,8.41
2023-02-19T01:24:45.470Z,8.31
2023-02-19T01:25:45.990Z,8.23
2023-02-19T01:26:45.754Z,8.36
2023-02-19T01:27:45.427Z,8.33
2023-02-19T01:28:45.910Z,8.23
2023-02-19T01:29:45.777Z,8.27
2023-02-19T01:30:45.687Z,8.24
2023-02-19T01:31:45.610Z,8.23
2023-02-19T01:32:44.917Z,8.24
2023-02-19T01:33:45.977Z,8.19
2023-02-19T01:34:45.223Z,8.2
2023-02-19T01:35:45.451Z,8.2
2023-02-19T01:36:45.776Z,8.27
2023-02-19T01:37:45.025Z,8.2
2023-02-19T01:38:46.151Z,8.28
2023-02-19T01:39:44.711Z,8.19
2023-02-19T01:40:45.836Z,8.15
2023-02-19T01:41:46.811Z,8.19
2023-02-19T01:42:45.239Z,8.28
2023-02-19T01:43:45.252Z,8.24
2023-02-19T01:44:45.092Z,8.31
2023-02-19T01:45:45.557Z,8.2
2023-02-19T01:46:45.325Z,8.2
2023-02-19T01:47:45.284Z,8.13
2023-02-19T01:48:45.300Z,8.15
2023-02-19T01:49:46.979Z,8.15
2023-02-19T01:50:45.623Z,8.16
2023-02-19T01:51:45.383Z,8.15
2023-02-19T01:52:45.724Z,8.15
2023-02-19T01:53:45.350Z,8.19
2023-02-19T01:54:45.700Z,8.12
2023-02-19T01:55:45.963Z,8.2
2023-02-19T01:56:45.628Z,8.1
2023-02-19T01:57:45.504Z,8.18
2023-02-19T01:58:45.107Z,8.18
2023-02-19T01:59:45.365Z,8.23
2023-02-19T02:00:45.590Z,8.12
2023-02-19T02:01:45.525Z,8.1
2023-02-19T02:02:44.971Z,8.09
2023-02-19T02:03:45.163Z,8.1
2023-02-19T02:04:45.431Z,8.08
2023-02-19T02:05:46.196Z,8.09
2023-02-19T02:06:45.444Z,8.13
2023-02-19T02:07:45.460Z,8.1
2023-02-19T02:08:45.783Z,8.1
2023-02-19T02:09:45.657Z,8.13
2023-02-19T02:10:45.811Z,8.15
2023-02-19T02:11:46.077Z,8.1
2023-02-19T02:12:45.224Z,8.13
2023-02-19T02:13:45.747Z,8.12
2023-02-19T02:14:45.514Z,8.1
2023-02-19T02:15:45.248Z,8.08
2023-02-19T02:16:45.851Z,8.1
2023-02-19T02:17:45.273Z,8.06
2023-02-19T02:18:45.688Z,8.08
2023-02-19T02:19:45.016Z,8.03
2023-02-19T02:20:45.540Z,8.12
2023-02-19T02:21:46.131Z,8.12
2023-02-19T02:22:45.548Z,8.18
2023-02-19T02:23:45.626Z,8.12
2023-02-19T02:24:45.905Z,8.1
2023-02-19T02:25:46.198Z,8.08
2023-02-19T02:26:46.068Z,8.03
2023-02-19T02:27:47.567Z,7.98
2023-02-19T02:28:45.702Z,8.1
2023-02-19T02:29:45.725Z,8.01
2023-02-19T02:30:45.179Z,8.09
2023-02-19T02:31:46.934Z,8
2023-02-19T02:32:45.736Z,8
2023-02-19T02:33:45.631Z,8.09
2023-02-19T02:34:45.388Z,8.06
2023-02-19T02:35:45.947Z,8.08
2023-02-19T02:36:45.413Z,8.03
2023-02-19T02:37:45.682Z,8.05
2023-02-19T02:38:46.189Z,8.01
2023-02-19T02:39:45.687Z,8.03
2023-02-19T02:40:46.019Z,8.03
2023-02-19T02:41:45.707Z,8.05
2023-02-19T02:42:45.724Z,8.05
2023-02-19T02:43:46.155Z,8
2023-02-19T02:44:45.750Z,8.01
2023-02-19T02:45:46.202Z,7.98
2023-02-19T02:46:46.257Z,7.97
2023-02-19T02:47:45.787Z,8.03
2023-02-19T02:48:46.690Z,8.01
2023-02-19T02:49:45.720Z,7.98
2023-02-19T02:50:46.485Z,8.06
2023-02-19T02:51:45.838Z,8.05
2023-02-19T02:52:45.980Z,8.05
2023-02-19T02:53:45.559Z,8.05
2023-02-19T02:54:45.609Z,8.1
2023-02-19T02:55:46.835Z,8.1
2023-02-19T02:56:46.139Z,8.1
2023-02-19T02:57:45.299Z,8.06
2023-02-19T02:58:45.844Z,8.12
2023-02-19T02:59:45.940Z,8.1
2023-02-19T03:00:46.543Z,8.13
2023-02-19T03:01:45.595Z,8.12
2023-02-19T03:02:47.294Z,8.05
2023-02-19T03:03:46.162Z,8.05
2023-02-19T03:04:46.960Z,8.05
2023-02-19T03:05:45.864Z,8.05
2023-02-19T03:06:45.961Z,8.08
2023-02-19T03:07:46.714Z,8.08
2023-02-19T03:08:46.228Z,8.05
2023-02-19T03:09:48.181Z,8.08
2023-02-19T03:10:46.078Z,8.08
2023-02-19T03:11:46.044Z,8.03
2023-02-19T03:12:45.523Z,8.08
2023-02-19T03:13:45.995Z,8.1
2023-02-19T03:14:47.156Z,8.12
2023-02-19T03:15:46.736Z,8.03
2023-02-19T03:16:47.644Z,8.05
2023-02-19T03:17:46.023Z,8.09
2023-02-19T03:18:46.434Z,8.03
2023-02-19T03:19:45.962Z,8
2023-02-19T03:20:46.212Z,8.06
2023-02-19T03:21:46.058Z,8.08
2023-02-19T03:22:46.050Z,8
2023-02-19T03:23:46.806Z,8.01
2023-02-19T03:24:46.108Z,8.05
2023-02-19T03:25:46.118Z,8.09
2023-02-19T03:27:46.028Z,8.06
2023-02-19T03:28:46.525Z,8.12
2023-02-19T03:29:45.528Z,8.01
2023-02-19T03:30:46.976Z,8.03
2023-02-19T03:31:47.071Z,8.12
2023-02-19T03:32:46.802Z,8.09
2023-02-19T03:33:46.168Z,8.08
2023-02-19T03:34:45.855Z,8.08
2023-02-19T03:35:46.082Z,8.12
2023-02-19T03:36:45.980Z,8.16
2023-02-19T03:37:45.962Z,8.12
2023-02-19T03:38:46.454Z,8.12
2023-02-19T03:39:46.349Z,8.15
2023-02-19T03:40:46.136Z,8.15
2023-02-19T03:41:46.265Z,8.15
2023-02-19T03:42:46.143Z,8.15
2023-02-19T03:43:46.516Z,8.18
2023-02-19T03:44:46.758Z,8.12
2023-02-19T03:45:46.689Z,8.18
2023-02-19T03:46:46.880Z,8.12
2023-02-19T03:47:46.683Z,8.16
2023-02-19T03:48:46.830Z,8.09
2023-02-19T03:49:48.997Z,8.08
2023-02-19T03:50:47.855Z,8.06
2023-02-19T03:51:46.692Z,8.06
2023-02-19T03:52:47.667Z,8.12
2023-02-19T03:53:46.211Z,8.06
2023-02-19T03:54:47.264Z,8.08
2023-02-19T03:55:46.459Z,8.12
2023-02-19T03:56:45.981Z,8.09
2023-02-19T03:57:46.888Z,8.13
2023-02-19T03:58:46.005Z,8.12
2023-02-19T03:59:46.005Z,8.12
2023-02-19T04:00:46.572Z,8.15
2023-02-19T04:01:46.325Z,8.15
2023-02-19T04:02:46.618Z,8.16
2023-02-19T04:03:46.330Z,8.16
2023-02-19T04:04:46.204Z,8.1
2023-02-19T04:05:47.168Z,8.15
2023-02-19T04:06:46.090Z,8.13
2023-02-19T04:07:46.774Z,8.15
2023-02-19T04:08:46.642Z,8.13
2023-02-19T04:09:46.326Z,8.1
2023-02-19T04:10:46.370Z,8.1
2023-02-19T04:11:46.985Z,8.2
2023-02-19T04:12:47.578Z,8.16
2023-02-19T04:13:46.733Z,8.19
2023-02-19T04:14:46.839Z,8.18
2023-02-19T04:15:46.471Z,8.15
2023-02-19T04:16:47.255Z,8.24
2023-02-19T04:17:46.423Z,8.15
2023-02-19T04:18:45.912Z,8.2
2023-02-19T04:19:46.570Z,8.19
2023-02-19T04:20:46.152Z,8.12
2023-02-19T04:21:48.303Z,8.16
2023-02-19T04:22:46.238Z,8.1
2023-02-19T04:24:46.450Z,8.18
